Geraldton Airport

Airport
ICAO code: 
YGEL
IATA Code: 
GET
Summary
ICAO Region: 
APAC
Territory: 
Location: 
, Western Australia
Serving: 
Geraldton
Elevation: 
121 ft
Coordinates: 
Aerial View: 
28° 47' 45.96" S, 114° 42' 25.2" E
Metar
Observation
YGEL 281530Z AUTO 13011KT 9999 // NCD 10/06 Q1027 RF00.0/000.0
Station
GERALDTON
Date/Time
2022-06-28 15:30:00
Wind direction
130°
Wind speed
11 kts
Lowest cloud amount
no clouds detected
Temperature
10°C
Dew point
6°C
Humidity
76%
QNH
1027 hPa
Weather condition
n/a

Runways

Designator Length Width Surface Rops
14/32 844 18 GVL No/No
8/26 900 18 GVL No/No
3/21 1981 45 ASP No/No
Airport map: 
Aerial View: 

SKYbrary Partners:

Safety knowledge contributed by: